createdAt,value
2023-04-18T00:01:18.217Z,102593.50
2023-04-18T00:03:46.237Z,102585.53
2023-04-18T00:06:14.386Z,102593.41
2023-04-18T00:08:41.834Z,102596.41
2023-04-18T00:11:09.226Z,102596.22
2023-04-18T00:13:38.677Z,102584.13
2023-04-18T00:16:08.311Z,102584.28
2023-04-18T00:18:37.300Z,102596.75
2023-04-18T00:21:04.951Z,102592.53
2023-04-18T00:23:34.520Z,102594.84
2023-04-18T00:26:02.409Z,102600.25
2023-04-18T00:28:29.859Z,102600.25
2023-04-18T00:30:57.406Z,102596.97
2023-04-18T00:33:24.856Z,102600.81
2023-04-18T00:35:54.885Z,102604.53
2023-04-18T00:38:22.275Z,102603.25
2023-04-18T00:40:49.816Z,102596.22
2023-04-18T00:43:17.577Z,102598.38
2023-04-18T00:45:45.016Z,102598.38
2023-04-18T00:48:12.740Z,102594.72
2023-04-18T00:50:41.991Z,102601.00
2023-04-18T00:53:11.392Z,102590.72
2023-04-18T00:55:39.151Z,102600.06
2023-04-18T00:58:06.865Z,102595.19
2023-04-18T01:00:34.869Z,102601.56
2023-04-18T01:03:02.453Z,102599.13
2023-04-18T01:05:30.254Z,102599.97
2023-04-18T01:08:01.341Z,102594.38
2023-04-18T01:10:30.835Z,102598.00
2023-04-18T01:13:15.170Z,102593.53
2023-04-18T01:15:45.282Z,102598.47
2023-04-18T01:18:13.946Z,102602.13
2023-04-18T01:20:47.146Z,102592.59
2023-04-18T01:23:15.624Z,102592.22
2023-04-18T01:25:42.971Z,102606.31
2023-04-18T01:28:11.497Z,102598.91
2023-04-18T01:30:39.055Z,102606.94
2023-04-18T01:33:06.904Z,102604.88
2023-04-18T01:35:34.448Z,102606.34
2023-04-18T01:38:01.960Z,102603.00
2023-04-18T01:40:30.420Z,102609.94
2023-04-18T01:42:57.551Z,102616.53
2023-04-18T01:45:25.221Z,102610.41
2023-04-18T01:47:52.707Z,102617.03
2023-04-18T01:50:20.260Z,102608.78
2023-04-18T01:52:48.474Z,102623.31
2023-04-18T01:55:17.056Z,102617.88
2023-04-18T01:57:44.544Z,102610.59
2023-04-18T02:00:30.986Z,102611.00
2023-04-18T02:03:01.641Z,102616.84
2023-04-18T02:05:29.399Z,102618.69
2023-04-18T02:07:56.885Z,102632.63
2023-04-18T02:10:24.507Z,102614.66
2023-04-18T02:12:52.266Z,102625.69
2023-04-18T02:15:20.755Z,102616.09
2023-04-18T02:17:49.323Z,102615.47
2023-04-18T02:20:16.936Z,102626.72
2023-04-18T02:25:31.160Z,102626.19
2023-04-18T02:28:17.316Z,102632.78
2023-04-18T02:30:44.859Z,102631.44
2023-04-18T02:33:12.247Z,102625.22
2023-04-18T02:35:40.911Z,102627.56
2023-04-18T02:38:09.514Z,102632.13
2023-04-18T02:40:37.009Z,102633.13
2023-04-18T02:43:04.554Z,102641.63
2023-04-18T02:45:33.025Z,102631.50
2023-04-18T02:48:01.597Z,102631.34
2023-04-18T02:50:29.780Z,102632.88
2023-04-18T02:52:58.473Z,102633.09
2023-04-18T02:55:33.581Z,102633.41
2023-04-18T02:58:20.396Z,102642.69
2023-04-18T03:01:11.021Z,102641.13
2023-04-18T03:03:58.307Z,102633.34
2023-04-18T03:06:36.184Z,102625.31
2023-04-18T03:09:04.162Z,102634.19
2023-04-18T03:11:34.382Z,102628.94
2023-04-18T03:14:02.157Z,102641.41
2023-04-18T03:16:37.580Z,102636.31
2023-04-18T03:19:06.918Z,102632.53
2023-04-18T03:21:34.644Z,102644.84
2023-04-18T03:24:02.300Z,102647.00
2023-04-18T03:26:29.939Z,102635.06
2023-04-18T03:28:57.753Z,102649.56
2023-04-18T03:31:25.408Z,102645.31
2023-04-18T03:33:52.806Z,102648.28
2023-04-18T03:36:25.538Z,102645.03
2023-04-18T03:38:55.368Z,102641.06
2023-04-18T03:41:24.107Z,102642.78
2023-04-18T03:43:51.712Z,102646.34
2023-04-18T03:46:19.672Z,102644.25
2023-04-18T03:48:49.909Z,102647.19
2023-04-18T03:51:17.472Z,102642.44
2023-04-18T03:53:44.874Z,102649.72
2023-04-18T03:56:12.501Z,102647.06
2023-04-18T03:58:47.664Z,102647.47
2023-04-18T04:01:15.322Z,102659.03
2023-04-18T04:03:43.064Z,102651.66
2023-04-18T04:06:10.601Z,102645.69
2023-04-18T04:08:38.062Z,102646.09
2023-04-18T04:11:05.535Z,102653.97
2023-04-18T04:13:33.810Z,102644.34
2023-04-18T04:16:01.624Z,102643.28
2023-04-18T04:18:31.463Z,102651.47
2023-04-18T04:21:01.503Z,102653.34
2023-04-18T04:23:46.617Z,102660.69
2023-04-18T04:26:26.426Z,102647.81
2023-04-18T04:29:08.297Z,102645.69
2023-04-18T04:31:39.476Z,102648.81
2023-04-18T04:34:07.218Z,102649.81
2023-04-18T04:36:35.145Z,102655.22
2023-04-18T04:39:05.519Z,102657.81
2023-04-18T04:41:47.342Z,102651.22
2023-04-18T04:44:18.214Z,102662.19
2023-04-18T04:46:45.946Z,102659.19
2023-04-18T04:49:19.590Z,102654.88
2023-04-18T04:51:47.269Z,102655.97
2023-04-18T04:54:15.479Z,102659.22
2023-04-18T04:56:44.846Z,102652.13
2023-04-18T04:59:14.584Z,102652.38
2023-04-18T05:01:44.989Z,102654.50
2023-04-18T05:04:13.129Z,102651.19
2023-04-18T05:06:42.806Z,102650.97
2023-04-18T05:09:10.558Z,102651.66
2023-04-18T05:11:40.004Z,102650.38
2023-04-18T05:14:08.117Z,102658.38
2023-04-18T05:16:37.445Z,102658.16
2023-04-18T05:19:06.240Z,102644.50
2023-04-18T05:21:35.348Z,102635.88
2023-04-18T05:24:03.118Z,102645.94
2023-04-18T05:26:32.379Z,102652.16
2023-04-18T05:29:00.006Z,102651.63
2023-04-18T05:31:30.914Z,102658.22
2023-04-18T05:34:01.747Z,102650.41
2023-04-18T05:36:29.802Z,102666.25
2023-04-18T05:38:57.514Z,102651.63
2023-04-18T05:41:25.884Z,102654.28
2023-04-18T05:44:05.247Z,102658.91
2023-04-18T05:46:37.923Z,102652.41
2023-04-18T05:49:05.753Z,102654.03
2023-04-18T05:51:33.587Z,102650.97
2023-04-18T05:54:02.865Z,102647.69
2023-04-18T05:56:32.492Z,102660.00
2023-04-18T05:59:02.788Z,102653.69
2023-04-18T06:01:34.435Z,102654.63
2023-04-18T06:04:09.014Z,102649.53
2023-04-18T06:06:41.213Z,102650.00
2023-04-18T06:09:11.314Z,102642.13
2023-04-18T06:11:41.694Z,102653.84
2023-04-18T06:14:11.847Z,102642.38
2023-04-18T06:16:39.917Z,102649.38
2023-04-18T06:19:08.249Z,102645.25
2023-04-18T06:21:35.795Z,102654.66
2023-04-18T06:24:06.698Z,102646.03
2023-04-18T06:26:40.997Z,102640.75
2023-04-18T06:29:36.821Z,102653.44
2023-04-18T06:32:07.791Z,102642.59
2023-04-18T06:34:41.265Z,102633.94
2023-04-18T06:37:09.465Z,102644.91
2023-04-18T06:39:36.986Z,102634.91
2023-04-18T06:42:05.870Z,102646.91
2023-04-18T06:44:36.831Z,102634.78
2023-04-18T06:47:08.947Z,102629.63
2023-04-18T06:49:37.903Z,102648.88
2023-04-18T06:52:08.121Z,102629.47
2023-04-18T06:54:35.755Z,102630.22
2023-04-18T06:57:04.505Z,102639.97
2023-04-18T06:59:34.441Z,102618.63
2023-04-18T07:02:03.895Z,102624.63
2023-04-18T07:04:31.497Z,102623.81
2023-04-18T07:07:02.177Z,102624.91
2023-04-18T07:09:29.777Z,102626.00
2023-04-18T07:11:57.460Z,102624.03
2023-04-18T07:14:26.150Z,102636.31
2023-04-18T07:16:54.698Z,102620.38
2023-04-18T07:19:23.625Z,102622.75
2023-04-18T07:21:51.332Z,102625.13
2023-04-18T07:24:19.219Z,102625.38
2023-04-18T07:29:53.016Z,102606.06
2023-04-18T07:32:28.289Z,102598.78
2023-04-18T07:34:58.051Z,102587.44
2023-04-18T07:37:46.779Z,102609.00
2023-04-18T07:40:15.282Z,102588.28
2023-04-18T07:42:47.340Z,102596.13
2023-04-18T07:46:20.903Z,102594.25
2023-04-18T07:49:07.692Z,102587.34
2023-04-18T07:51:36.879Z,102585.09
2023-04-18T07:54:05.300Z,102588.50
2023-04-18T07:56:36.428Z,102579.00
2023-04-18T07:59:04.137Z,102585.41
2023-04-18T08:01:32.266Z,102570.34
2023-04-18T08:04:02.239Z,102578.72
2023-04-18T08:06:35.275Z,102579.31
2023-04-18T08:09:06.359Z,102582.56
2023-04-18T08:11:35.070Z,102559.28
2023-04-18T08:14:04.601Z,102558.50
2023-04-18T08:16:32.470Z,102564.19
2023-04-18T08:19:00.182Z,102548.50
2023-04-18T08:21:28.416Z,102541.44
2023-04-18T08:23:58.640Z,102539.75
2023-04-18T08:26:27.893Z,102545.59
2023-04-18T08:28:55.798Z,102535.00
2023-04-18T08:31:27.274Z,102536.13
2023-04-18T08:33:57.696Z,102544.13
2023-04-18T08:36:25.608Z,102529.59
2023-04-18T08:38:54.791Z,102535.94
2023-04-18T08:41:35.967Z,102520.09
2023-04-18T08:44:03.881Z,102522.84
2023-04-18T08:46:37.440Z,102528.81
2023-04-18T08:49:06.508Z,102507.78
2023-04-18T08:51:34.426Z,102515.97
2023-04-18T08:54:06.520Z,102511.31
2023-04-18T08:56:37.892Z,102505.41
2023-04-18T08:59:05.874Z,102502.56
2023-04-18T09:01:58.030Z,102501.81
2023-04-18T09:04:44.017Z,102503.09
2023-04-18T09:07:17.354Z,102506.31
2023-04-18T09:09:45.381Z,102500.44
2023-04-18T09:12:18.891Z,102489.00
2023-04-18T09:14:49.166Z,102490.69
2023-04-18T09:17:40.057Z,102502.22
2023-04-18T09:20:13.417Z,102501.28
2023-04-18T09:22:58.360Z,102491.03
2023-04-18T09:28:43.559Z,102485.38
2023-04-18T09:31:13.395Z,102502.72
2023-04-18T09:33:57.962Z,102484.75
2023-04-18T09:36:28.438Z,102497.53
2023-04-18T09:38:57.452Z,102474.06
2023-04-18T09:41:28.362Z,102475.09
2023-04-18T09:44:15.253Z,102491.00
2023-04-18T09:46:47.154Z,102482.72
2023-04-18T09:49:19.198Z,102484.25
2023-04-18T09:51:51.206Z,102471.75
2023-04-18T09:54:21.059Z,102475.09
2023-04-18T09:56:51.168Z,102477.31
2023-04-18T09:59:38.504Z,102465.56
2023-04-18T10:02:10.343Z,102465.22
2023-04-18T10:04:38.479Z,102448.91
2023-04-18T10:07:08.070Z,102456.06
2023-04-18T10:09:37.159Z,102469.19
2023-04-18T10:12:04.982Z,102454.91
2023-04-18T10:14:52.836Z,102469.53
2023-04-18T10:17:20.744Z,102447.16
2023-04-18T10:20:03.275Z,102472.47
2023-04-18T10:22:31.085Z,102460.84
2023-04-18T10:24:58.688Z,102455.22
2023-04-18T10:27:57.074Z,102446.44
2023-04-18T10:30:44.647Z,102454.06
2023-04-18T10:36:13.989Z,102454.06
2023-04-18T10:38:49.162Z,102446.41
2023-04-18T10:41:26.951Z,102439.06
2023-04-18T10:44:09.916Z,102446.75
2023-04-18T10:46:42.515Z,102435.94
2023-04-18T10:49:22.339Z,102439.22
2023-04-18T10:51:54.220Z,102432.56
2023-04-18T10:54:46.425Z,102427.38
2023-04-18T10:57:14.364Z,102435.53
2023-04-18T10:59:43.250Z,102431.88
2023-04-18T11:02:31.157Z,102430.53
2023-04-18T11:05:01.930Z,102429.22
2023-04-18T11:07:36.454Z,102420.59
2023-04-18T11:10:06.475Z,102423.97
2023-04-18T11:12:38.795Z,102413.16
2023-04-18T11:15:23.551Z,102408.31
2023-04-18T11:18:10.736Z,102411.56
2023-04-18T11:20:40.318Z,102408.44
2023-04-18T11:23:18.517Z,102413.25
2023-04-18T11:25:45.995Z,102405.75
2023-04-18T11:28:13.932Z,102405.09
2023-04-18T11:30:42.051Z,102404.94
2023-04-18T11:33:11.885Z,102390.63
2023-04-18T11:35:40.760Z,102388.63
2023-04-18T11:38:10.526Z,102390.78
2023-04-18T11:40:38.119Z,102385.50
2023-04-18T11:43:06.366Z,102379.50
2023-04-18T11:45:34.535Z,102371.88
2023-04-18T11:48:03.293Z,102378.88
2023-04-18T11:50:36.829Z,102369.16
2023-04-18T11:53:04.854Z,102367.81
2023-04-18T11:55:32.668Z,102365.00
2023-04-18T11:58:01.889Z,102358.56
2023-04-18T12:00:38.880Z,102371.88
2023-04-18T12:03:17.361Z,102360.72
2023-04-18T12:05:45.627Z,102365.00
2023-04-18T12:08:20.336Z,102345.72
2023-04-18T12:10:52.906Z,102354.81
2023-04-18T12:13:31.880Z,102350.13
2023-04-18T12:16:02.668Z,102344.78
2023-04-18T12:18:30.158Z,102349.94
2023-04-18T12:20:58.882Z,102346.50
2023-04-18T12:23:35.811Z,102344.94
2023-04-18T12:26:08.792Z,102342.13
2023-04-18T12:28:36.268Z,102347.09
2023-04-18T12:31:07.703Z,102335.16
2023-04-18T12:33:36.967Z,102342.53
2023-04-18T12:36:08.869Z,102351.13
2023-04-18T12:38:36.544Z,102346.31
2023-04-18T12:41:04.053Z,102344.31
2023-04-18T12:43:31.497Z,102338.03
2023-04-18T12:45:59.882Z,102334.94
2023-04-18T12:48:27.251Z,102337.34
2023-04-18T12:50:54.609Z,102333.97
2023-04-18T12:53:22.024Z,102332.44
2023-04-18T12:55:49.589Z,102318.56
2023-04-18T12:58:18.952Z,102322.22
2023-04-18T13:00:46.688Z,102320.88
2023-04-18T13:03:14.341Z,102309.53
2023-04-18T13:05:41.968Z,102310.31
2023-04-18T13:08:16.990Z,102304.81
2023-04-18T13:10:46.387Z,102303.03
2023-04-18T13:13:13.971Z,102303.19
2023-04-18T13:15:41.663Z,102303.91
2023-04-18T13:18:08.957Z,102306.63
2023-04-18T13:20:36.903Z,102306.16
2023-04-18T13:23:04.336Z,102303.34
2023-04-18T13:25:31.785Z,102295.38
2023-04-18T13:28:01.189Z,102296.78
2023-04-18T13:30:29.475Z,102290.53
2023-04-18T13:32:57.074Z,102286.94
2023-04-18T13:35:25.083Z,102295.00
2023-04-18T13:37:52.532Z,102289.47
2023-04-18T13:40:20.122Z,102290.28
2023-04-18T13:42:47.519Z,102278.25
2023-04-18T13:45:14.924Z,102284.44
2023-04-18T13:47:42.397Z,102272.38
2023-04-18T13:50:10.111Z,102267.44
2023-04-18T13:52:37.612Z,102278.69
2023-04-18T13:55:05.369Z,102275.69
2023-04-18T13:57:34.640Z,102269.72
2023-04-18T14:00:02.242Z,102276.66
2023-04-18T14:02:41.208Z,102276.34
2023-04-18T14:05:09.334Z,102274.38
2023-04-18T14:07:38.597Z,102263.25
2023-04-18T14:10:07.004Z,102266.41
2023-04-18T14:12:34.846Z,102259.59
2023-04-18T14:15:02.335Z,102259.81
2023-04-18T14:17:32.486Z,102260.44
2023-04-18T14:20:01.139Z,102252.44
2023-04-18T14:22:30.737Z,102255.59
2023-04-18T14:24:58.012Z,102257.63
2023-04-18T14:27:26.360Z,102247.97
2023-04-18T14:29:53.946Z,102252.13
2023-04-18T14:32:21.427Z,102258.41
2023-04-18T14:34:48.884Z,102246.31
2023-04-18T14:37:17.175Z,102244.38
2023-04-18T14:39:45.249Z,102242.44
2023-04-18T14:42:12.751Z,102247.28
2023-04-18T14:44:58.924Z,102237.78
2023-04-18T14:47:32.014Z,102237.94
2023-04-18T14:49:59.375Z,102241.81
2023-04-18T14:52:27.034Z,102233.56
2023-04-18T14:54:54.429Z,102224.59
2023-04-18T14:57:21.932Z,102220.75
2023-04-18T14:59:49.981Z,102221.66
2023-04-18T15:02:18.201Z,102221.97
2023-04-18T15:04:45.835Z,102229.34
2023-04-18T15:07:13.789Z,102223.06
2023-04-18T15:09:41.206Z,102207.44
2023-04-18T15:12:08.640Z,102217.59
2023-04-18T15:14:36.170Z,102220.09
2023-04-18T15:17:05.201Z,102223.06
2023-04-18T15:19:32.655Z,102207.81
2023-04-18T15:22:00.118Z,102215.81
2023-04-18T15:24:27.469Z,102208.81
2023-04-18T15:26:54.812Z,102216.47
2023-04-18T15:29:22.119Z,102207.00
2023-04-18T15:31:49.492Z,102201.53
2023-04-18T15:34:17.779Z,102197.03
2023-04-18T15:36:47.317Z,102201.69
2023-04-18T15:39:15.146Z,102194.22
2023-04-18T15:41:42.405Z,102204.84
2023-04-18T15:44:09.543Z,102200.22
2023-04-18T15:46:36.904Z,102202.56
2023-04-18T15:49:04.258Z,102196.25
2023-04-18T15:51:31.862Z,102195.25
2023-04-18T15:53:59.349Z,102198.91
2023-04-18T15:56:27.126Z,102197.56
2023-04-18T15:58:57.793Z,102201.22
2023-04-18T16:01:25.395Z,102204.84
2023-04-18T16:03:53.141Z,102198.56
2023-04-18T16:06:23.770Z,102198.56
2023-04-18T16:08:51.336Z,102205.53
2023-04-18T16:11:20.821Z,102204.19
2023-04-18T16:13:48.224Z,102209.50
2023-04-18T16:16:15.705Z,102213.91
2023-04-18T16:18:43.078Z,102211.09
2023-04-18T16:21:14.610Z,102215.06
2023-04-18T16:23:42.612Z,102215.69
2023-04-18T16:26:09.901Z,102216.03
2023-04-18T16:31:24.570Z,102213.19
2023-04-18T16:33:53.137Z,102206.69
2023-04-18T16:36:20.790Z,102204.72
2023-04-18T16:38:48.222Z,102206.19
2023-04-18T16:41:15.658Z,102210.97
2023-04-18T16:43:42.990Z,102207.03
2023-04-18T16:46:12.111Z,102194.09
2023-04-18T16:48:39.869Z,102203.84
2023-04-18T16:51:07.394Z,102210.28
2023-04-18T16:53:34.774Z,102206.97
2023-04-18T16:56:03.468Z,102206.44
2023-04-18T16:58:30.764Z,102204.97
2023-04-18T17:00:58.138Z,102207.28
2023-04-18T17:03:25.824Z,102207.59
2023-04-18T17:05:53.471Z,102204.56
2023-04-18T17:08:20.824Z,102213.38
2023-04-18T17:10:52.597Z,102205.22
2023-04-18T17:13:20.053Z,102200.53
2023-04-18T17:15:47.552Z,102210.94
2023-04-18T17:18:15.035Z,102198.50
2023-04-18T17:20:42.532Z,102213.72
2023-04-18T17:23:10.017Z,102214.19
2023-04-18T17:25:37.597Z,102216.03
2023-04-18T17:28:05.233Z,102216.69
2023-04-18T17:30:32.632Z,102208.00
2023-04-18T17:33:00.143Z,102215.97
2023-04-18T17:35:27.541Z,102213.09
2023-04-18T17:37:54.925Z,102215.00
2023-04-18T17:40:22.390Z,102219.38
2023-04-18T17:42:49.769Z,102221.44
2023-04-18T17:45:20.665Z,102213.94
2023-04-18T17:47:49.780Z,102215.69
2023-04-18T17:50:17.878Z,102213.94
2023-04-18T17:52:46.617Z,102225.22
2023-04-18T17:55:14.104Z,102224.84
2023-04-18T17:57:41.925Z,102229.47
2023-04-18T18:00:12.087Z,102231.06
2023-04-18T18:02:43.754Z,102227.03
2023-04-18T18:05:14.024Z,102229.53
2023-04-18T18:07:43.377Z,102231.66
2023-04-18T18:10:12.081Z,102230.59
2023-04-18T18:12:40.154Z,102243.16
2023-04-18T18:15:08.917Z,102243.16
2023-04-18T18:17:36.339Z,102237.88
2023-04-18T18:20:08.862Z,102246.25
2023-04-18T18:22:36.533Z,102241.41
2023-04-18T18:25:05.705Z,102243.38
2023-04-18T18:27:33.232Z,102247.69
2023-04-18T18:30:00.679Z,102251.53
2023-04-18T18:32:28.162Z,102245.72
2023-04-18T18:34:55.645Z,102243.50
2023-04-18T18:37:24.881Z,102243.66
2023-04-18T18:39:54.596Z,102243.56
2023-04-18T18:42:22.131Z,102244.38
2023-04-18T18:44:49.545Z,102242.63
2023-04-18T18:47:18.497Z,102239.16
2023-04-18T18:49:45.929Z,102239.69
2023-04-18T18:52:13.281Z,102236.50
2023-04-18T18:54:40.687Z,102246.44
2023-04-18T18:57:08.865Z,102233.13
2023-04-18T18:59:36.352Z,102235.38
2023-04-18T19:02:04.544Z,102239.81
2023-04-18T19:04:32.089Z,102241.94
2023-04-18T19:06:59.805Z,102240.13
2023-04-18T19:09:27.587Z,102242.09
2023-04-18T19:11:57.114Z,102228.47
2023-04-18T19:14:24.657Z,102228.59
2023-04-18T19:16:52.195Z,102232.88
2023-04-18T19:19:19.653Z,102227.91
2023-04-18T19:21:47.151Z,102236.00
2023-04-18T19:24:15.059Z,102232.59
2023-04-18T19:26:42.766Z,102230.28
2023-04-18T19:29:11.760Z,102229.00
2023-04-18T19:31:39.206Z,102230.97
2023-04-18T19:34:06.689Z,102223.47
2023-04-18T19:36:33.948Z,102227.25
2023-04-18T19:39:01.610Z,102233.63
2023-04-18T19:41:29.074Z,102232.13
2023-04-18T19:43:56.493Z,102218.78
2023-04-18T19:46:23.841Z,102219.19
2023-04-18T19:48:51.228Z,102221.97
2023-04-18T19:51:18.748Z,102220.47
2023-04-18T19:53:46.244Z,102228.00
2023-04-18T19:56:15.150Z,102228.00
2023-04-18T19:58:46.943Z,102216.88
2023-04-18T20:01:18.651Z,102215.88
2023-04-18T20:03:47.323Z,102210.19
2023-04-18T20:06:14.860Z,102216.06
2023-04-18T20:08:42.290Z,102213.00
2023-04-18T20:11:11.210Z,102201.44
2023-04-18T20:13:38.972Z,102198.25
2023-04-18T20:16:25.048Z,102194.66
2023-04-18T20:19:12.474Z,102207.44
2023-04-18T20:21:58.741Z,102202.84
2023-04-18T20:24:49.431Z,102202.72
2023-04-18T20:27:35.566Z,102193.84
2023-04-18T20:30:22.260Z,102194.94
2023-04-18T20:33:26.831Z,102199.09
2023-04-18T20:35:55.009Z,102198.69
2023-04-18T20:38:41.159Z,102199.38
2023-04-18T20:41:48.995Z,102197.47
2023-04-18T20:44:17.065Z,102196.75
2023-04-18T20:46:44.366Z,102194.13
2023-04-18T20:49:11.875Z,102190.78
2023-04-18T20:51:58.006Z,102193.84
2023-04-18T20:54:43.982Z,102194.53
2023-04-18T20:57:11.381Z,102186.19
2023-04-18T20:59:38.798Z,102182.56
2023-04-18T21:02:08.500Z,102190.22
2023-04-18T21:04:36.175Z,102190.59
2023-04-18T21:07:03.661Z,102185.78
2023-04-18T21:09:36.550Z,102188.91
2023-04-18T21:12:05.760Z,102187.38
2023-04-18T21:14:53.044Z,102193.63
2023-04-18T21:17:20.483Z,102183.63
2023-04-18T21:19:49.100Z,102187.91
2023-04-18T21:22:17.296Z,102169.88
2023-04-18T21:24:45.360Z,102170.69
2023-04-18T21:27:31.584Z,102171.78
2023-04-18T21:30:17.433Z,102171.78
2023-04-18T21:32:46.098Z,102166.88
2023-04-18T21:35:32.328Z,102170.94
2023-04-18T21:37:59.788Z,102163.13
2023-04-18T21:40:27.268Z,102163.13
2023-04-18T21:42:54.743Z,102170.72
2023-04-18T21:45:22.278Z,102177.66
2023-04-18T21:47:50.107Z,102170.00
2023-04-18T21:50:17.688Z,102167.09
2023-04-18T21:52:45.211Z,102173.38
2023-04-18T21:55:31.121Z,102158.31
2023-04-18T21:57:58.680Z,102163.56
2023-04-18T22:00:26.067Z,102153.06
2023-04-18T22:02:53.593Z,102148.63
2023-04-18T22:05:21.165Z,102147.16
2023-04-18T22:08:06.955Z,102141.66
2023-04-18T22:10:55.429Z,102147.47
2023-04-18T22:13:23.906Z,102151.75
2023-04-18T22:16:28.432Z,102160.44
2023-04-18T22:18:56.083Z,102154.75
2023-04-18T22:21:23.500Z,102151.25
2023-04-18T22:23:50.834Z,102147.88
2023-04-18T22:26:18.193Z,102129.25
2023-04-18T22:28:45.613Z,102137.81
2023-04-18T22:31:12.945Z,102128.38
2023-04-18T22:33:40.506Z,102137.22
2023-04-18T22:36:08.123Z,102118.84
2023-04-18T22:38:35.535Z,102122.53
2023-04-18T22:41:02.866Z,102122.34
2023-04-18T22:43:30.859Z,102124.13
2023-04-18T22:45:58.267Z,102129.72
2023-04-18T22:48:25.796Z,102125.88
2023-04-18T22:50:53.158Z,102124.41
2023-04-18T22:53:20.701Z,102123.22
2023-04-18T22:55:48.144Z,102116.47
2023-04-18T22:58:15.519Z,102108.78
2023-04-18T23:00:43.282Z,102110.06
2023-04-18T23:03:10.966Z,102109.69
2023-04-18T23:05:38.383Z,102102.06
2023-04-18T23:08:07.150Z,102101.22
2023-04-18T23:10:34.727Z,102090.94
2023-04-18T23:13:02.358Z,102095.38
2023-04-18T23:15:29.865Z,102096.28
2023-04-18T23:17:57.234Z,102087.72
2023-04-18T23:20:24.659Z,102090.25
2023-04-18T23:22:53.003Z,102082.16
2023-04-18T23:25:20.461Z,102083.38
2023-04-18T23:27:49.088Z,102079.06
2023-04-18T23:30:16.615Z,102070.22
2023-04-18T23:32:44.324Z,102072.41
2023-04-18T23:35:30.257Z,102064.63
2023-04-18T23:37:57.794Z,102060.19
2023-04-18T23:40:25.281Z,102065.53
2023-04-18T23:42:52.611Z,102057.00
2023-04-18T23:45:19.987Z,102050.78
2023-04-18T23:47:47.336Z,102051.84
2023-04-18T23:50:14.803Z,102049.81
2023-04-18T23:53:00.917Z,102049.31
2023-04-18T23:55:28.287Z,102036.59
2023-04-18T23:57:55.755Z,102038.38
